Time;durP1;ratioP1;P1;durP2;ratioP2;P2;SDS_P1;SDS_P2;PMS_P1;PMS_P2;Temp;Humidity;BMP_temperature;BMP_pressure;BME280_temperature;BME280_humidity;BME280_pressure;Samples;Min_cycle;Max_cycle;Signal;HPM_P1;HPM_P2
2021/07/10 00:00:40;;;;;;;7.50;5.15;;;15.60;99.90;;;14.15;88.66;101630.31;3519042;40;102469;-40
2021/07/10 00:03:08;;;;;;;8.05;5.70;;;15.60;99.90;;;14.10;88.95;101619.97;3519323;40;102240;-39
2021/07/10 00:05:35;;;;;;;7.70;5.35;;;15.50;99.90;;;14.05;89.05;101621.66;3519293;39;102282;-40
2021/07/10 00:08:03;;;;;;;7.00;5.15;;;15.50;99.90;;;14.03;89.03;101610.06;3519322;40;102291;-40
2021/07/10 00:10:34;;;;;;;7.25;5.20;;;15.50;99.90;;;13.98;88.79;101610.75;3519008;40;102107;-39
2021/07/10 00:13:01;;;;;;;9.77;4.93;;;15.40;99.90;;;13.92;89.12;101612.44;3519118;39;103244;-40
2021/07/10 00:15:29;;;;;;;7.90;5.28;;;15.30;99.90;;;13.87;88.96;101604.03;3518625;40;102465;-40
2021/07/10 00:17:59;;;;;;;6.32;4.85;;;15.30;99.90;;;13.83;89.03;101601.91;3519046;40;104252;-42
2021/07/10 00:20:27;;;;;;;9.60;5.40;;;15.30;99.90;;;13.82;89.11;101606.56;3519255;40;102262;-40
2021/07/10 00:22:54;;;;;;;6.57;4.75;;;15.20;99.90;;;13.79;89.12;101604.25;3519156;40;102348;-42
2021/07/10 00:25:21;;;;;;;6.60;5.10;;;15.20;99.90;;;13.75;89.14;101601.09;3518787;40;103215;-40
2021/07/10 00:27:51;;;;;;;6.97;5.13;;;15.20;99.90;;;13.74;88.85;101593.06;3518675;40;102124;-40
2021/07/10 00:30:20;;;;;;;7.32;5.32;;;15.20;99.90;;;13.72;88.91;101590.56;3518656;40;102250;-40
2021/07/10 00:32:50;;;;;;;8.55;5.57;;;15.10;99.90;;;13.67;89.29;101587.63;3519228;40;103384;-40
2021/07/10 00:35:18;;;;;;;7.38;4.88;;;15.10;99.90;;;13.63;89.14;101592.69;3519014;40;102436;-40
2021/07/10 00:37:46;;;;;;;14.45;5.50;;;15.00;99.90;;;13.59;89.04;101590.59;3519432;39;102259;-40
2021/07/10 00:40:14;;;;;;;;;;;15.00;99.90;;;13.54;89.21;101577.53;3519576;40;102807;-40
2021/07/10 00:42:42;;;;;;;9.05;5.25;;;15.00;99.90;;;13.47;89.34;101585.78;3520063;40;103158;-40
2021/07/10 00:45:11;;;;;;;;;;;14.90;99.90;;;13.46;89.29;101578.59;3521176;40;102290;-39
2021/07/10 00:47:41;;;;;;;7.88;5.18;;;14.90;99.90;;;13.42;89.62;101581.94;3519697;39;103430;-40
2021/07/10 00:50:22;;;;;;;7.55;5.22;;;14.90;99.90;;;13.38;89.66;101579.63;3520200;40;103363;-40
2021/07/10 00:52:50;;;;;;;7.75;5.50;;;14.80;99.90;;;13.38;89.96;101581.50;3520059;40;102267;-39
2021/07/10 00:55:23;;;;;;;8.77;5.47;;;14.80;99.90;;;13.37;90.14;101577.94;3520208;40;102513;-39
2021/07/10 00:57:54;;;;;;;7.30;5.53;;;14.80;99.90;;;13.34;90.08;101578.38;3520399;39;102265;-40
2021/07/10 01:00:24;;;;;;;7.40;5.32;;;14.70;99.90;;;13.31;89.99;101576.06;3520332;40;102458;-40
2021/07/10 01:02:54;;;;;;;7.70;5.35;;;14.70;99.90;;;13.27;89.71;101577.53;3520075;39;102365;-39
2021/07/10 01:05:28;;;;;;;10.07;5.53;;;14.70;99.90;;;13.20;89.73;101576.69;3520199;39;103357;-39
2021/07/10 01:07:57;;;;;;;7.35;5.47;;;14.60;99.90;;;13.17;89.85;101572.50;3520040;39;102280;-40
2021/07/10 01:10:25;;;;;;;7.47;5.18;;;14.60;99.90;;;13.14;90.02;101570.19;3520558;39;102324;-39
2021/07/10 01:12:54;;;;;;;;;;;14.60;99.90;;;13.09;90.09;101562.59;3521095;39;102254;-40
2021/07/10 01:15:25;;;;;;;9.05;5.65;;;14.50;99.90;;;13.08;90.21;101566.38;3520132;39;102071;-40
2021/07/10 01:17:57;;;;;;;8.27;5.50;;;14.50;99.90;;;13.06;90.50;101573.09;3647327;22;104361;-42
2021/07/10 01:20:27;;;;;;;7.70;5.30;;;14.50;99.90;;;13.04;90.07;101573.34;3510335;40;102339;-41
2021/07/10 01:22:57;;;;;;;7.57;5.15;;;14.50;99.90;;;13.01;89.95;101568.28;3510124;40;103290;-41
2021/07/10 01:25:26;;;;;;;7.22;5.00;;;14.40;99.90;;;12.94;89.95;101568.28;3510037;40;102345;-41
2021/07/10 01:27:55;;;;;;;8.10;5.18;;;14.40;99.90;;;12.93;90.02;101563.00;3510335;40;102240;-42
2021/07/10 01:30:24;;;;;;;9.20;5.53;;;14.40;99.90;;;12.90;90.13;101566.16;3510211;40;102299;-42
2021/07/10 01:32:54;;;;;;;8.48;5.20;;;14.30;99.90;;;12.86;90.19;101552.03;3510567;40;102245;-42
2021/07/10 01:35:23;;;;;;;9.35;6.18;;;14.30;99.90;;;12.87;90.17;101550.16;3510063;40;102085;-42
2021/07/10 01:37:50;;;;;;;6.63;4.90;;;14.30;99.90;;;12.84;90.59;101548.66;3509877;40;104129;-43
2021/07/10 01:40:20;;;;;;;8.35;5.88;;;14.30;99.90;;;12.80;90.70;101548.25;3510108;40;102255;-42
2021/07/10 01:42:49;;;;;;;8.90;5.57;;;14.20;99.90;;;12.78;90.75;101546.78;3510133;40;103184;-41
2021/07/10 01:45:20;;;;;;;9.48;5.53;;;14.20;99.90;;;12.75;90.72;101545.31;3510417;40;102481;-43
2021/07/10 01:47:52;;;;;;;7.45;4.78;;;14.20;99.90;;;12.70;90.44;101534.13;3509597;40;102770;-41
2021/07/10 01:50:19;;;;;;;7.38;5.10;;;14.10;99.90;;;12.66;90.44;101527.38;3510049;40;102260;-41
2021/07/10 01:52:47;;;;;;;7.65;5.55;;;14.10;99.90;;;12.62;90.66;101510.56;3509923;40;104001;-40
2021/07/10 01:55:16;;;;;;;7.70;5.18;;;14.10;99.90;;;12.61;90.57;101529.91;3509623;40;102527;-39
2021/07/10 01:57:46;;;;;;;6.05;4.38;;;14.10;99.90;;;12.52;90.94;101510.97;3510291;40;103307;-40
2021/07/10 02:00:15;;;;;;;7.30;5.13;;;14.00;99.90;;;12.56;90.63;101518.75;3510072;40;102680;-39
2021/07/10 02:02:42;;;;;;;9.38;5.07;;;14.00;99.90;;;12.55;90.71;101515.16;3509646;40;102251;-39
2021/07/10 02:05:12;;;;;;;7.75;4.82;;;14.00;99.90;;;12.53;90.90;101509.06;3509693;40;102267;-40
2021/07/10 02:07:40;;;;;;;6.75;4.70;;;14.00;99.90;;;12.47;90.88;101513.50;3510344;40;103081;-42
2021/07/10 02:10:12;;;;;;;6.40;4.82;;;13.90;99.90;;;12.46;90.80;101520.00;3509932;40;102667;-42
2021/07/10 02:12:46;;;;;;;6.80;4.88;;;13.90;99.90;;;12.42;90.79;101515.97;3510111;40;104061;-44
2021/07/10 02:15:14;;;;;;;6.85;4.88;;;13.90;99.90;;;12.42;91.07;101524.19;3510077;40;102303;-42
2021/07/10 02:17:44;;;;;;;7.40;5.30;;;13.90;99.90;;;12.39;91.00;101519.13;3509488;40;102379;-41
2021/07/10 02:20:22;;;;;;;7.22;4.80;;;13.80;99.90;;;12.35;90.84;101516.00;3509803;40;102163;-42
2021/07/10 02:22:51;;;;;;;6.80;4.80;;;13.80;99.90;;;12.33;90.56;101511.78;3509734;40;102182;-41
2021/07/10 02:25:21;;;;;;;8.20;4.70;;;13.80;99.90;;;12.29;90.49;101515.97;3509573;40;102263;-41
2021/07/10 02:27:51;;;;;;;6.68;4.82;;;13.80;99.90;;;12.25;90.75;101514.72;3510039;40;102144;-42
2021/07/10 02:30:28;;;;;;;7.25;4.70;;;13.70;99.90;;;12.20;90.68;101513.44;3509670;40;102509;-41
2021/07/10 02:32:58;;;;;;;7.40;4.97;;;13.70;99.90;;;12.16;90.61;101508.56;3510227;40;102325;-40
2021/07/10 02:35:28;;;;;;;7.55;4.75;;;13.60;99.90;;;12.15;90.84;101504.97;3509299;40;102629;-41
2021/07/10 02:37:58;;;;;;;7.60;5.32;;;13.60;99.90;;;12.11;90.55;101511.91;3509399;40;103561;-41
2021/07/10 02:40:26;;;;;;;9.48;4.97;;;13.60;99.90;;;12.11;91.00;101505.63;3509929;40;102465;-41
2021/07/10 02:42:54;;;;;;;8.00;4.90;;;13.60;99.90;;;12.10;90.79;101507.50;3509380;40;103090;-42
2021/07/10 02:45:22;;;;;;;10.00;4.95;;;13.60;99.90;;;12.04;90.96;101497.41;3509493;40;102420;-42
2021/07/10 02:47:50;;;;;;;9.18;5.57;;;13.60;99.90;;;12.07;91.45;101505.19;3509771;40;103321;-41
2021/07/10 02:50:27;;;;;;;7.63;4.82;;;13.50;99.90;;;12.05;91.14;101510.00;3509586;40;102569;-42
2021/07/10 02:52:55;;;;;;;8.25;5.68;;;13.50;99.90;;;12.03;91.10;101502.00;3509542;40;103109;-42
2021/07/10 02:55:25;;;;;;;8.43;5.30;;;13.50;99.90;;;12.01;91.32;101503.28;3509533;40;102154;-41
2021/07/10 02:57:52;;;;;;;7.20;5.30;;;13.50;99.90;;;11.99;91.33;101505.34;3509465;40;102263;-41
2021/07/10 03:00:23;;;;;;;7.43;5.53;;;13.40;99.90;;;11.97;91.55;101502.81;3509798;40;102794;-41
2021/07/10 03:02:50;;;;;;;7.70;5.40;;;13.50;99.90;;;11.96;91.42;101505.75;3508346;40;104132;-41
2021/07/10 03:05:18;;;;;;;7.15;4.85;;;13.40;99.90;;;11.92;91.11;101495.19;3509019;40;102634;-41
2021/07/10 03:07:46;;;;;;;6.57;4.82;;;13.40;99.90;;;11.92;91.15;101499.84;3509347;40;103128;-41
2021/07/10 03:10:25;;;;;;;8.80;5.35;;;13.40;99.90;;;11.89;91.33;101490.16;3509735;40;103230;-41
2021/07/10 03:12:53;;;;;;;7.75;5.40;;;13.40;99.90;;;11.88;91.22;101493.09;3509916;40;102359;-41
2021/07/10 03:15:22;;;;;;;7.38;5.20;;;13.40;99.90;;;11.81;91.40;101482.13;3509509;40;102447;-41
2021/07/10 03:17:50;;;;;;;10.30;5.80;;;13.30;99.90;;;11.85;91.35;101486.16;3509186;40;102397;-39
2021/07/10 03:20:21;;;;;;;7.85;5.20;;;13.30;99.90;;;11.85;91.39;101486.16;3509774;40;102368;-40
2021/07/10 03:22:49;;;;;;;9.63;5.85;;;13.30;99.90;;;11.80;91.73;101481.31;3509590;40;103237;-41
2021/07/10 03:25:17;;;;;;;9.50;5.90;;;13.30;99.90;;;11.83;91.75;101490.97;3509204;40;102351;-41
2021/07/10 03:27:47;;;;;;;10.40;5.47;;;13.30;99.90;;;11.82;91.39;101486.56;3509512;40;102210;-41
2021/07/10 03:30:19;;;;;;;10.75;7.05;;;13.30;99.90;;;11.79;91.51;101479.59;3509453;40;102326;-42
2021/07/10 03:32:48;;;;;;;9.38;6.53;;;13.30;99.90;;;11.79;92.03;101485.06;3509786;40;102146;-42
2021/07/10 03:35:17;;;;;;;9.00;6.35;;;13.30;99.90;;;11.80;91.88;101480.44;3509405;40;102398;-41
2021/07/10 03:37:50;;;;;;;10.50;6.03;;;13.30;99.90;;;11.80;91.94;101477.72;3509626;40;104306;-41
2021/07/10 03:40:22;;;;;;;8.55;6.13;;;13.30;99.90;;;11.79;92.14;101478.78;3509520;40;102335;-44
2021/07/10 03:42:49;;;;;;;9.20;5.70;;;13.30;99.90;;;11.79;92.09;101479.59;3509308;40;102317;-42
2021/07/10 03:45:18;;;;;;;8.27;5.65;;;13.30;99.90;;;11.82;92.05;101483.00;3509687;40;102418;-38
2021/07/10 03:47:49;;;;;;;8.82;6.35;;;13.30;99.90;;;11.83;92.00;101482.78;3509222;40;103565;-41
2021/07/10 03:50:18;;;;;;;11.48;7.25;;;13.30;99.90;;;11.84;91.86;101475.44;3509157;40;102815;-41
2021/07/10 03:52:46;;;;;;;10.18;7.20;;;13.30;99.90;;;11.87;92.11;101470.38;3509193;40;102619;-42
2021/07/10 03:55:14;;;;;;;11.25;7.50;;;13.30;99.90;;;11.85;92.17;101456.06;3509666;40;102408;-41
2021/07/10 03:57:42;;;;;;;11.35;7.05;;;13.40;99.90;;;11.93;92.38;101463.25;3509154;40;102261;-41
2021/07/10 04:00:15;;;;;;;11.35;7.32;;;13.40;99.90;;;11.99;92.30;101461.59;3509264;40;103383;-42
2021/07/10 04:02:43;;;;;;;11.00;6.95;;;13.40;99.90;;;12.04;92.18;101461.84;3509407;40;103380;-39
2021/07/10 04:05:11;;;;;;;11.77;7.15;;;13.50;99.90;;;12.08;92.40;101455.75;3508998;40;103318;-39
2021/07/10 04:07:40;;;;;;;9.88;6.65;;;13.50;99.90;;;12.10;92.44;101447.34;3509815;40;103296;-39
2021/07/10 04:10:10;;;;;;;10.25;6.95;;;13.50;99.90;;;12.19;92.62;101451.53;3509400;40;102331;-41
2021/07/10 04:12:39;;;;;;;12.68;7.57;;;13.50;99.90;;;12.26;92.73;101450.72;3509038;40;102330;-42
2021/07/10 04:15:11;;;;;;;11.88;7.10;;;13.60;99.90;;;12.30;92.76;101452.81;3508875;40;102346;-41
2021/07/10 04:17:39;;;;;;;11.70;8.30;;;13.70;99.90;;;12.37;92.76;101452.84;3510255;40;104051;-41
2021/07/10 04:20:09;;;;;;;12.13;7.97;;;13.70;99.90;;;12.46;92.89;101451.56;3510737;40;102240;-40
2021/07/10 04:22:38;;;;;;;10.45;7.30;;;13.80;99.90;;;12.55;92.95;101454.94;3510640;40;102353;-39
2021/07/10 04:25:10;;;;;;;11.13;7.70;;;13.80;99.90;;;12.65;92.92;101458.13;3510963;40;102434;-39
2021/07/10 04:27:39;;;;;;;13.10;8.27;;;14.00;99.90;;;12.78;93.12;101456.41;3510458;40;103285;-41
2021/07/10 04:30:08;;;;;;;11.27;7.78;;;14.10;99.90;;;12.92;93.46;101457.25;3510357;40;102154;-42
2021/07/10 04:32:36;;;;;;;12.45;8.60;;;14.20;99.90;;;13.03;93.44;101444.81;3510826;40;103033;-41
2021/07/10 04:35:05;;;;;;;13.50;8.45;;;14.30;99.90;;;13.20;93.56;101453.41;3509910;40;102402;-42
2021/07/10 04:37:34;;;;;;;14.13;9.85;;;14.40;99.90;;;13.40;93.91;101447.03;3510542;40;103228;-41
2021/07/10 04:40:04;;;;;;;17.05;11.90;;;14.60;99.90;;;13.61;94.69;101444.03;3510265;40;102317;-41
2021/07/10 04:42:32;;;;;;;22.38;15.43;;;14.80;99.90;;;13.83;95.60;101449.19;3510424;40;104862;-42
2021/07/10 04:44:59;;;;;;;25.58;15.65;;;14.90;99.90;;;14.10;96.16;101449.03;3509969;40;102667;-41
2021/07/10 04:47:26;;;;;;;25.60;17.08;;;15.20;99.90;;;14.34;97.32;101450.13;3510412;40;103294;-41
2021/07/10 04:49:54;;;;;;;27.08;17.25;;;15.40;99.90;;;14.55;96.95;101449.97;3510727;40;103495;-42
2021/07/10 04:52:21;;;;;;;28.67;16.52;;;15.60;99.90;;;14.79;97.28;101451.06;3510353;40;103125;-41
2021/07/10 04:54:49;;;;;;;26.13;16.55;;;15.80;99.90;;;15.00;97.12;101455.28;3510070;40;102429;-41
2021/07/10 04:57:16;;;;;;;28.88;17.35;;;16.00;99.90;;;15.23;96.36;101456.53;3510069;40;103195;-41
2021/07/10 04:59:44;;;;;;;25.80;17.10;;;16.20;99.90;;;15.42;95.75;101460.13;3510165;40;103357;-42
2021/07/10 05:02:11;;;;;;;25.52;17.20;;;16.40;99.90;;;15.52;94.53;101454.94;3510562;40;102310;-39
2021/07/10 05:04:39;;;;;;;24.88;16.63;;;16.60;99.90;;;15.63;93.31;101461.53;3510129;40;102702;-41
2021/07/10 05:07:06;;;;;;;21.17;14.48;;;16.70;99.90;;;15.64;93.05;101454.97;3510219;40;102458;-42
2021/07/10 05:09:34;;;;;;;22.58;15.23;;;16.70;99.90;;;15.66;92.90;101461.09;3510406;40;102438;-41
2021/07/10 05:12:01;;;;;;;21.05;13.77;;;16.80;99.90;;;15.68;92.69;101458.97;3510207;40;103230;-42
2021/07/10 05:14:29;;;;;;;21.25;14.30;;;16.80;99.90;;;15.72;93.08;101453.00;3510421;40;102605;-41
2021/07/10 05:16:56;;;;;;;18.17;13.65;;;16.80;99.90;;;15.78;93.13;101457.56;3510299;40;102296;-41
2021/07/10 05:19:23;;;;;;;18.40;13.52;;;16.90;99.90;;;15.81;92.71;101449.69;3510321;40;102818;-41
2021/07/10 05:21:51;;;;;;;18.10;13.18;;;16.90;99.90;;;15.85;92.72;101458.31;3510273;40;102222;-42
2021/07/10 05:24:18;;;;;;;19.33;12.98;;;17.00;99.90;;;15.92;93.06;101461.00;3510657;40;102793;-42
2021/07/10 05:26:46;;;;;;;19.80;13.43;;;17.00;99.90;;;15.98;93.12;101457.31;3509991;40;102344;-42
2021/07/10 05:29:13;;;;;;;17.42;12.80;;;17.10;99.90;;;16.04;92.98;101450.03;3510441;40;102308;-42
2021/07/10 05:31:40;;;;;;;19.52;12.85;;;17.10;99.90;;;16.09;92.41;101450.19;3510107;40;103199;-42
2021/07/10 05:34:08;;;;;;;19.38;12.77;;;17.20;99.90;;;16.16;92.30;101452.84;3510227;40;102578;-41
2021/07/10 05:36:35;;;;;;;19.27;13.25;;;17.30;99.90;;;16.21;91.45;101462.06;3510181;40;102414;-43
2021/07/10 05:39:04;;;;;;;16.88;12.82;;;17.30;99.90;;;16.24;91.27;101453.34;3510256;40;102568;-40
2021/07/10 05:41:32;;;;;;;18.48;12.25;;;17.40;99.90;;;16.34;91.45;101461.03;3510558;40;102334;-41
2021/07/10 05:43:59;;;;;;;15.70;11.90;;;17.40;99.90;;;16.37;91.16;101451.44;3510133;40;103262;-42
2021/07/10 05:46:27;;;;;;;19.65;11.93;;;17.50;99.90;;;16.46;89.67;101462.97;3509884;40;103269;-39
2021/07/10 05:48:54;;;;;;;19.05;13.13;;;17.50;99.90;;;16.51;88.46;101455.69;3510221;40;102210;-42
2021/07/10 05:51:22;;;;;;;17.98;12.60;;;17.60;99.90;;;16.60;88.74;101450.66;3510385;40;102140;-41
2021/07/10 05:53:50;;;;;;;16.38;12.63;;;17.70;99.90;;;16.68;87.89;101454.94;3510084;40;102268;-42
2021/07/10 05:56:17;;;;;;;17.58;12.52;;;17.70;99.90;;;16.74;88.21;101445.75;3510562;40;102278;-41
2021/07/10 05:58:45;;;;;;;;;;;17.80;99.90;;;16.83;87.92;101443.47;3510965;40;102466;-41
2021/07/10 06:01:12;;;;;;;15.90;12.00;;;17.90;99.90;;;16.90;88.42;101446.09;3510069;40;103127;-43
2021/07/10 06:03:40;;;;;;;21.02;15.30;;;17.90;99.90;;;16.99;88.36;101447.47;3509948;40;102495;-42
2021/07/10 06:06:07;;;;;;;19.77;15.23;;;18.00;99.90;;;17.04;88.51;101444.81;3510376;40;103202;-41
2021/07/10 06:08:35;;;;;;;21.65;15.13;;;18.10;99.90;;;17.15;88.47;101450.56;3510322;40;103292;-39
2021/07/10 06:11:02;;;;;;;22.80;14.98;;;18.10;99.90;;;17.15;87.62;101443.13;3510206;40;102387;-42
2021/07/10 06:13:29;;;;;;;20.38;14.75;;;18.20;99.90;;;17.18;86.84;101447.31;3510289;40;102705;-42
2021/07/10 06:15:57;;;;;;;21.48;14.60;;;18.20;99.90;;;17.24;85.63;101449.13;3510483;40;102458;-41
2021/07/10 06:18:24;;;;;;;19.13;13.02;;;18.20;99.90;;;17.32;85.60;101448.75;3509975;40;102419;-42
2021/07/10 06:20:52;;;;;;;18.85;12.02;;;18.30;99.90;;;17.42;84.56;101447.28;3510456;40;103497;-43
2021/07/10 06:23:21;;;;;;;19.80;12.57;;;18.40;99.90;;;17.56;84.79;101448.69;3510102;40;102413;-43
2021/07/10 06:25:48;;;;;;;16.15;11.88;;;18.50;99.90;;;17.67;84.00;101453.31;3509667;40;102253;-42
2021/07/10 06:28:16;;;;;;;16.92;12.18;;;18.60;99.90;;;17.77;83.24;101449.06;3509969;40;102185;-44
2021/07/10 06:30:44;;;;;;;16.10;11.30;;;18.70;99.90;;;17.91;83.28;101449.66;3510481;40;103191;-45
2021/07/10 06:33:12;;;;;;;18.35;11.13;;;18.80;99.90;;;17.97;81.83;101443.94;3510015;40;103387;-42
2021/07/10 06:35:39;;;;;;;17.95;12.27;;;18.90;99.90;;;18.13;81.91;101449.78;3510237;40;102311;-42
2021/07/10 06:38:07;;;;;;;15.65;12.27;;;19.00;99.90;;;18.23;81.72;101449.16;3509764;40;102913;-42
2021/07/10 06:40:35;;;;;;;15.40;11.18;;;19.10;99.90;;;18.36;82.12;101448.00;3509309;40;102359;-40
2021/07/10 06:43:02;;;;;;;14.77;10.07;;;19.20;99.90;;;18.32;79.20;101455.09;3510685;40;102343;-39
2021/07/10 06:45:30;;;;;;;;;;;19.20;99.90;;;18.38;78.11;101449.41;3510846;40;102580;-39
2021/07/10 06:48:01;;;;;;;14.18;9.77;;;19.30;99.90;;;18.51;79.06;101452.94;3510054;40;102355;-39
2021/07/10 06:50:29;;;;;;;15.77;10.88;;;19.40;99.90;;;18.67;79.56;101446.53;3510398;40;104133;-43
2021/07/10 06:52:57;;;;;;;18.55;11.38;;;19.50;99.90;;;18.68;77.05;101439.09;3509735;40;102480;-43
2021/07/10 06:55:24;;;;;;;;;;;19.60;99.90;;;18.75;78.71;101450.00;3510824;40;103357;-42
2021/07/10 06:57:52;;;;;;;14.20;10.30;;;19.60;99.90;;;18.89;78.23;101444.97;3510438;40;102417;-42
2021/07/10 07:00:20;;;;;;;14.85;10.45;;;19.70;99.90;;;19.01;77.15;101444.88;3509922;40;102210;-42
2021/07/10 07:02:48;;;;;;;13.27;10.27;;;19.90;99.90;;;19.19;76.39;101452.03;3509340;40;102482;-42
2021/07/10 07:05:15;;;;;;;15.68;11.07;;;20.00;99.90;;;19.28;75.17;101439.44;3509857;40;104351;-45
2021/07/10 07:07:43;;;;;;;14.68;10.27;;;20.10;99.90;;;19.39;74.52;101441.25;3510194;40;102205;-42
2021/07/10 07:10:11;;;;;;;;;;;20.10;99.90;;;19.57;74.17;101436.47;3511027;40;102225;-41
2021/07/10 07:12:40;;;;;;;12.07;9.23;;;20.30;99.90;;;19.65;76.31;101438.81;3510862;40;102410;-42
2021/07/10 07:15:10;;;;;;;16.85;10.18;;;20.40;99.90;;;19.69;73.52;101445.50;3509940;40;102224;-42
2021/07/10 07:17:37;;;;;;;16.60;10.05;;;20.50;99.90;;;19.68;71.70;101442.97;3641140;22;104093;-40
2021/07/10 07:20:12;;;;;;;12.52;9.68;;;20.50;99.90;;;19.74;73.14;101441.91;3519603;40;102720;-40
2021/07/10 07:22:47;;;;;;;13.93;9.50;;;20.60;99.90;;;19.79;72.34;101450.31;3519248;40;102591;-40
2021/07/10 07:25:21;;;;;;;13.43;9.65;;;20.60;99.90;;;19.92;70.53;101448.25;3520002;40;102294;-40
2021/07/10 07:27:52;;;;;;;12.45;9.10;;;20.60;99.90;;;19.97;70.62;101451.91;3519143;40;102734;-40
2021/07/10 07:30:20;;;;;;;11.88;8.27;;;20.70;99.90;;;20.09;71.43;101437.06;3519566;40;102319;-40
2021/07/10 07:32:48;;;;;;;11.93;8.85;;;20.80;99.90;;;20.20;70.05;101436.06;3519384;40;102316;-40
2021/07/10 07:35:17;;;;;;;11.70;8.25;;;20.90;99.90;;;20.30;71.06;101437.25;3519168;40;102730;-40
2021/07/10 07:37:45;;;;;;;10.57;7.72;;;21.00;99.90;;;20.31;70.86;101437.00;3519312;40;103414;-40
2021/07/10 07:40:16;;;;;;;10.52;6.70;;;21.10;99.90;;;20.39;68.38;101435.66;3519558;40;102810;-40
2021/07/10 07:42:46;;;;;;;9.70;6.78;;;21.20;99.90;;;20.43;67.39;101433.22;3519436;40;102521;-40
2021/07/10 07:45:17;;;;;;;10.57;6.65;;;21.20;99.90;;;20.42;64.64;101429.59;3518649;40;103440;-40
2021/07/10 07:47:45;;;;;;;12.13;7.47;;;21.30;99.90;;;20.49;65.47;101435.75;3519130;40;102188;-40
2021/07/10 07:50:14;;;;;;;10.68;6.18;;;21.30;99.90;;;20.53;66.88;101433.28;3519871;40;103261;-40
2021/07/10 07:52:42;;;;;;;9.68;6.72;;;21.30;99.90;;;20.60;65.83;101435.81;3520191;40;102554;-40
2021/07/10 07:55:12;;;;;;;9.18;5.82;;;21.40;99.90;;;20.81;65.41;101431.28;3519864;40;102435;-40
2021/07/10 07:57:40;;;;;;;10.13;6.90;;;21.50;99.90;;;21.06;67.95;101427.84;3520426;39;102542;-40
2021/07/10 08:00:13;;;;;;;10.73;6.85;;;21.70;99.90;;;21.42;65.57;101441.06;3520423;40;103363;-41
2021/07/10 08:02:42;;;;;;;9.63;6.35;;;22.00;99.90;;;21.74;64.10;101434.53;3520767;40;102270;-40
2021/07/10 08:05:10;;;;;;;11.02;6.47;;;22.20;99.90;;;21.90;63.57;101429.84;3519941;40;102224;-40
2021/07/10 08:07:38;;;;;;;8.32;6.05;;;22.40;99.90;;;22.09;60.59;101440.44;3519953;40;102386;-40
2021/07/10 08:10:12;;;;;;;10.25;6.30;;;22.60;99.90;;;22.15;61.52;101433.78;3520482;40;103169;-40
2021/07/10 08:12:44;;;;;;;7.88;5.07;;;22.70;99.90;;;22.34;60.60;101422.94;3520437;40;102227;-41
2021/07/10 08:15:14;;;;;;;8.45;5.45;;;22.90;99.90;;;22.52;61.47;101431.88;3520224;40;102945;-40
2021/07/10 08:17:44;;;;;;;9.30;5.60;;;23.00;99.90;;;22.59;57.04;101423.25;3520212;39;102940;-40
2021/07/10 08:20:13;;;;;;;7.63;5.38;;;23.20;99.90;;;22.62;60.18;101423.50;3520383;40;102144;-40
2021/07/10 08:22:42;;;;;;;9.52;6.05;;;23.20;99.90;;;22.61;56.94;101418.25;3520228;40;102372;-40
2021/07/10 08:25:12;;;;;;;9.52;6.40;;;23.30;99.90;;;22.54;56.16;101424.09;3519466;40;102333;-41
2021/07/10 08:27:41;;;;;;;11.23;5.80;;;23.30;99.90;;;22.42;56.90;101416.00;3520140;40;102777;-40
2021/07/10 08:30:09;;;;;;;10.27;5.90;;;23.20;99.90;;;22.45;56.97;101412.66;3520023;40;103773;-40
2021/07/10 08:32:37;;;;;;;9.77;5.80;;;23.20;99.90;;;22.58;56.93;101410.47;3518874;40;102147;-41
2021/07/10 08:35:05;;;;;;;;;;;23.20;99.90;;;22.68;57.59;101410.44;3519906;40;103697;-40
2021/07/10 08:37:33;;;;;;;9.40;5.20;;;23.30;99.90;;;22.78;57.97;101402.06;3520508;40;102216;-41
2021/07/10 08:40:03;;;;;;;12.27;6.05;;;23.40;99.90;;;22.88;58.56;101401.22;3520688;40;102505;-40
2021/07/10 08:42:31;;;;;;;9.02;5.60;;;23.50;99.90;;;23.02;57.25;101401.47;3519022;40;103345;-41
2021/07/10 08:45:05;;;;;;;7.55;5.30;;;23.60;99.90;;;23.15;57.12;101394.44;3519861;40;103794;-41
2021/07/10 08:47:39;;;;;;;10.10;5.75;;;23.70;99.90;;;23.09;59.38;101388.09;3519580;40;102499;-40
2021/07/10 08:50:14;;;;;;;7.45;4.82;;;23.70;99.90;;;23.29;56.66;101391.91;3518679;40;104266;-40
2021/07/10 08:52:43;;;;;;;7.68;5.68;;;23.80;99.90;;;23.44;57.31;101392.97;3510179;40;102335;-41
2021/07/10 08:55:13;;;;;;;8.98;5.50;;;23.90;99.90;;;23.54;58.38;101392.91;3518251;40;102659;-40
2021/07/10 08:57:41;;;;;;;8.25;5.15;;;24.00;99.90;;;23.52;56.75;101392.38;3518900;40;102498;-42
2021/07/10 09:00:17;;;;;;;6.68;4.05;;;24.10;99.90;;;23.61;56.77;101385.09;3507627;40;104870;-41
2021/07/10 09:02:49;;;;;;;7.10;4.82;;;24.20;99.90;;;23.67;56.38;101391.44;3518699;40;103238;-44
2021/07/10 09:05:18;;;;;;;9.40;5.30;;;24.20;99.90;;;23.71;55.69;101381.38;3518182;40;102614;-41
2021/07/10 09:08:12;;;;;;;8.60;5.28;;;24.20;99.90;;;23.58;52.83;101384.84;3519471;40;102883;-41
2021/07/10 09:10:53;;;;;;;7.10;4.88;;;24.30;99.90;;;23.63;57.57;101390.38;3520024;40;102442;-41
2021/07/10 09:13:49;;;;;;;6.38;4.60;;;24.30;99.90;;;23.77;57.96;101387.78;3518199;40;102536;-41
2021/07/10 09:16:28;;;;;;;7.72;4.38;;;24.40;99.90;;;24.02;57.93;101388.75;3519675;40;102758;-41
2021/07/10 09:19:07;;;;;;;8.57;4.90;;;24.50;99.90;;;24.12;53.08;101383.06;3519216;40;102391;-43
2021/07/10 09:21:52;;;;;;;7.75;4.70;;;24.50;99.90;;;24.19;54.98;101385.53;3518674;40;104106;-40
2021/07/10 09:24:36;;;;;;;8.80;4.43;;;24.70;99.90;;;24.17;55.89;101383.06;3518311;40;102337;-41
2021/07/10 09:27:09;;;;;;;5.80;4.10;;;24.70;99.90;;;24.20;55.87;101371.31;3519312;40;104191;-41
2021/07/10 09:29:43;;;;;;;6.15;4.20;;;24.70;99.90;;;24.24;53.39;101377.97;3518893;40;103167;-41
2021/07/10 09:32:19;;;;;;;8.35;4.97;;;24.80;99.90;;;24.22;56.09;101374.66;3519028;40;103009;-40
2021/07/10 09:35:09;;;;;;;7.07;4.68;;;24.70;99.90;;;24.24;56.15;101366.81;3519821;40;103342;-41
2021/07/10 09:37:38;;;;;;;7.97;5.07;;;24.80;99.90;;;24.08;51.93;101368.06;3518727;40;103213;-41
2021/07/10 09:40:11;;;;;;;10.13;5.47;;;24.80;99.90;;;24.07;51.71;101366.41;3519773;40;102134;-40
2021/07/10 09:42:44;;;;;;;8.70;5.45;;;24.70;99.90;;;23.67;54.36;101367.22;3510692;40;102331;-40
2021/07/10 09:45:18;;;;;;;9.15;5.10;;;24.50;99.90;;;23.78;55.46;101364.38;3519411;40;102177;-40
2021/07/10 09:47:46;;;;;;;8.07;4.68;;;24.50;99.90;;;23.94;55.15;101377.06;3519179;40;104242;-40
2021/07/10 09:50:19;;;;;;;;;;;24.50;99.90;;;24.08;55.06;101366.13;3519914;40;102343;-40
2021/07/10 09:52:46;;;;;;;6.68;4.50;;;24.60;99.90;;;24.14;50.80;101364.13;3517665;40;102683;-36
2021/07/10 09:55:16;;;;;;;;;;;24.70;99.90;;;24.23;54.25;101359.59;3520383;40;103097;-41
2021/07/10 09:57:46;;;;;;;7.90;4.55;;;24.80;99.90;;;24.22;55.14;101363.50;3518427;40;104241;-40
2021/07/10 10:00:18;;;;;;;7.53;4.25;;;24.80;99.90;;;24.21;54.69;101356.25;3518611;40;102412;-43
2021/07/10 10:02:56;;;;;;;7.43;4.35;;;24.80;99.90;;;24.20;54.53;101357.38;3511074;40;103315;-41
2021/07/10 10:05:34;;;;;;;5.90;4.03;;;24.80;99.90;;;24.16;56.65;101358.25;3519367;40;102602;-41
2021/07/10 10:08:03;;;;;;;9.00;5.07;;;24.80;99.90;;;24.21;56.34;101359.06;3508500;40;102156;-38
2021/07/10 10:10:40;;;;;;;8.18;5.20;;;24.80;99.90;;;24.19;55.09;101347.38;3518555;40;102376;-40
2021/07/10 10:13:08;;;;;;;7.60;4.68;;;24.80;99.90;;;23.99;50.91;101354.72;3519341;40;103178;-42